Castillo De Trujillo — ECGD — position and weather

sailwx.info

Track history (hours):
 
Tides and Currents Weather Stations Pressure Air Temp Water Temp Dewpoint Dewpoint Depression Visibility Wind Speed Wind Dir Waves Ship Positions

Castillo De Trujillo

Last reported at 2017-Oct-21 03:42 UTC. Time now 2017-Oct-22 06:38 UTC.
Position N 37°39' W 000°25'.

Length 182 m; draft 11.3 m.

Type: Tanker. MMSI: 224432000.

Date/timePositionNaut miles runAvg speedWind from/ knotsBaromVisibWave heightAir tempDewpointWater temp
2017-Oct-21 03:42N 37°39' W 000°25'312.1
2017-Oct-21 03:29N 37°37' W 000°27'611.9
2017-Oct-21 03:00N 37°33' W 000°31'  
2017-Oct-15 15:44N 36°05' W 005°15'312.5
2017-Oct-15 15:30N 36°04' W 005°18'8 0.5
2017-Oct-14 22:20N 36°11' W 005°24'0 0.0
2017-Oct-14 14:26N 36°11' W 005°24'0 0.0
2017-Oct-14 13:56N 36°11' W 005°24'0 0.0
2017-Oct-14 13:20N 36°11' W 005°24'0 0.0
2017-Oct-14 03:26N 36°10' W 005°24'0 0.0
2017-Oct-14 02:56N 36°10' W 005°24'0 0.1
2017-Oct-14 02:26N 36°10' W 005°24'0 0.0
2017-Oct-14 02:00N 36°10' W 005°24'2 2.9
2017-Oct-14 01:12N 36°08' W 005°24'1 4.4
2017-Oct-14 01:00N 36°07' W 005°24'611.8
2017-Oct-14 00:30N 36°01' W 005°23'511.0
2017-Oct-14 00:00N 35°58' W 005°28'1813.1
2017-Oct-13 22:38N 35°55' W 005°50'313.1
2017-Oct-13 22:25N 35°55' W 005°53'6312.8
2017-Oct-13 17:29N 36°06' W 007°10'713.6
2017-Oct-13 16:57N 36°07' W 007°19'613.0
2017-Oct-13 16:29N 36°09' W 007°26'612.3
2017-Oct-13 16:00N 36°11' W 007°33'611.9
2017-Oct-13 15:29N 36°12' W 007°40'1712.7
2017-Oct-13 14:10N 36°17' W 008°00'213.0
2017-Oct-13 14:00N 36°18' W 008°03'1112.7
2017-Oct-13 13:10N 36°20' W 008°16'1712.0
2017-Oct-13 11:45N 36°25' W 008°36'311.8
2017-Oct-13 11:30N 36°26' W 008°39'612.0
2017-Oct-13 11:00N 36°28' W 008°46'612.0
2017-Oct-13 10:30N 36°29' W 008°54'612.1
2017-Oct-13 10:00N 36°31' W 009°01'612.5
2017-Oct-13 09:30N 36°32' W 009°08'612.3
2017-Oct-13 09:00N 36°34' W 009°16'1512.2
2017-Oct-13 07:47N 36°45' W 009°29'2912.2
2017-Oct-13 05:25N 37°12' W 009°40'511.8
2017-Oct-13 04:58N 37°17' W 009°42'2611.7
2017-Oct-13 02:47N 37°42' W 009°48'311.6
2017-Oct-13 02:30N 37°45' W 009°50'1411.9
2017-Oct-13 01:19N 37°59' W 009°54'812.1
2017-Oct-13 00:39N 38°07' W 009°56'311.9
2017-Oct-13 00:24N 38°10' W 009°57'911.7
2017-Oct-12 23:35N 38°19' W 009°60'211.7
2017-Oct-12 23:23N 38°21' W 010°00'511.7
2017-Oct-12 22:59N 38°26' W 010°02'1511.7
2017-Oct-12 21:44N 38°40' W 010°06'311.9
2017-Oct-12 21:29N 38°43' W 010°06'711.9
2017-Oct-12 20:54N 38°50' W 010°06'511.9
2017-Oct-12 20:30N 38°55' W 010°06'611.6
2017-Oct-12 20:00N 39°01' W 010°06'611.4
2017-Oct-12 19:30N 39°06' W 010°06'612.0
2017-Oct-12 19:00N 39°12' W 010°06'612.0
2017-Oct-12 18:30N 39°18' W 010°06'2011.8
2017-Oct-12 16:51N 39°38' W 010°06'511.7
2017-Oct-12 16:26N 39°43' W 010°06'2911.9
2017-Oct-12 13:57N 40°12' W 010°06'  
Track history (hours):
 
Tides and Currents Weather Stations Pressure Air Temp Water Temp Dewpoint Dewpoint Depression Visibility Wind Speed Wind Dir Waves Ship Positions

Castillo De Trujillo

Last reported at 2017-Oct-21 03:42 UTC. Time now 2017-Oct-22 06:38 UTC.
Position N 37°39' W 000°25'.

Length 182 m; draft 11.3 m.

Type: Tanker. MMSI: 224432000.

Date/timePositionNaut miles runAvg speedWind from/ knotsBaromVisibWave heightAir tempDewpointWater temp
2017-Oct-21 03:42N 37°39' W 000°25'312.1
2017-Oct-21 03:29N 37°37' W 000°27'611.9
2017-Oct-21 03:00N 37°33' W 000°31'  
2017-Oct-15 15:44N 36°05' W 005°15'312.5
2017-Oct-15 15:30N 36°04' W 005°18'8 0.5
2017-Oct-14 22:20N 36°11' W 005°24'0 0.0
2017-Oct-14 14:26N 36°11' W 005°24'0 0.0
2017-Oct-14 13:56N 36°11' W 005°24'0 0.0
2017-Oct-14 13:20N 36°11' W 005°24'0 0.0
2017-Oct-14 03:26N 36°10' W 005°24'0 0.0
2017-Oct-14 02:56N 36°10' W 005°24'0 0.1
2017-Oct-14 02:26N 36°10' W 005°24'0 0.0
2017-Oct-14 02:00N 36°10' W 005°24'2 2.9
2017-Oct-14 01:12N 36°08' W 005°24'1 4.4
2017-Oct-14 01:00N 36°07' W 005°24'611.8
2017-Oct-14 00:30N 36°01' W 005°23'511.0
2017-Oct-14 00:00N 35°58' W 005°28'1813.1
2017-Oct-13 22:38N 35°55' W 005°50'313.1
2017-Oct-13 22:25N 35°55' W 005°53'6312.8
2017-Oct-13 17:29N 36°06' W 007°10'713.6
2017-Oct-13 16:57N 36°07' W 007°19'613.0
2017-Oct-13 16:29N 36°09' W 007°26'612.3
2017-Oct-13 16:00N 36°11' W 007°33'611.9
2017-Oct-13 15:29N 36°12' W 007°40'1712.7
2017-Oct-13 14:10N 36°17' W 008°00'213.0
2017-Oct-13 14:00N 36°18' W 008°03'1112.7
2017-Oct-13 13:10N 36°20' W 008°16'1712.0
2017-Oct-13 11:45N 36°25' W 008°36'311.8
2017-Oct-13 11:30N 36°26' W 008°39'612.0
2017-Oct-13 11:00N 36°28' W 008°46'612.0
2017-Oct-13 10:30N 36°29' W 008°54'612.1
2017-Oct-13 10:00N 36°31' W 009°01'612.5
2017-Oct-13 09:30N 36°32' W 009°08'612.3
2017-Oct-13 09:00N 36°34' W 009°16'1512.2
2017-Oct-13 07:47N 36°45' W 009°29'2912.2
2017-Oct-13 05:25N 37°12' W 009°40'511.8
2017-Oct-13 04:58N 37°17' W 009°42'2611.7
2017-Oct-13 02:47N 37°42' W 009°48'311.6
2017-Oct-13 02:30N 37°45' W 009°50'1411.9
2017-Oct-13 01:19N 37°59' W 009°54'812.1
2017-Oct-13 00:39N 38°07' W 009°56'311.9
2017-Oct-13 00:24N 38°10' W 009°57'911.7
2017-Oct-12 23:35N 38°19' W 009°60'211.7
2017-Oct-12 23:23N 38°21' W 010°00'511.7
2017-Oct-12 22:59N 38°26' W 010°02'1511.7
2017-Oct-12 21:44N 38°40' W 010°06'311.9
2017-Oct-12 21:29N 38°43' W 010°06'711.9
2017-Oct-12 20:54N 38°50' W 010°06'511.9
2017-Oct-12 20:30N 38°55' W 010°06'611.6
2017-Oct-12 20:00N 39°01' W 010°06'611.4
2017-Oct-12 19:30N 39°06' W 010°06'612.0
2017-Oct-12 19:00N 39°12' W 010°06'612.0
2017-Oct-12 18:30N 39°18' W 010°06'2011.8
2017-Oct-12 16:51N 39°38' W 010°06'511.7
2017-Oct-12 16:26N 39°43' W 010°06'2911.9
2017-Oct-12 13:57N 40°12' W 010°06'  

Dump ship's entire track history